Time;durP1;ratioP1;P1;durP2;ratioP2;P2;SDS_P1;SDS_P2;PMS_P1;PMS_P2;Temp;Humidity;BMP_temperature;BMP_pressure;BME280_temperature;BME280_humidity;BME280_pressure;Samples;Min_cycle;Max_cycle;Signal;HPM_P1;HPM_P2
2024/04/17 00:00:37;;;;;;;;;1.00;1.00;;;;;;;;5503849;25;44006;-80
2024/04/17 00:03:03;;;;;;;;;2.00;2.00;;;;;;;;5503127;25;43935;-81
2024/04/17 00:05:28;;;;;;;;;3.00;2.00;;;;;;;;5502112;25;45128;-80
2024/04/17 00:07:53;;;;;;;;;2.00;2.00;;;;;;;;5502697;25;44023;-80
2024/04/17 00:10:19;;;;;;;;;2.00;2.00;;;;;;;;5503184;25;44020;-79
2024/04/17 00:12:44;;;;;;;;;1.33;1.00;;;;;;;;5503482;25;43973;-80
2024/04/17 00:15:09;;;;;;;;;2.67;1.00;;;;;;;;5504275;25;43995;-81
2024/04/17 00:17:34;;;;;;;;;1.00;1.00;;;;;;;;5504897;25;44023;-80
2024/04/17 00:19:59;;;;;;;;;2.00;2.00;;;;;;;;5503385;25;43831;-80
2024/04/17 00:22:24;;;;;;;;;1.67;1.67;;;;;;;;5501732;25;44132;-80
2024/04/17 00:24:50;;;;;;;;;1.00;1.00;;;;;;;;5501446;25;44690;-80
2024/04/17 00:27:15;;;;;;;;;1.33;1.00;;;;;;;;5501570;25;44006;-80
2024/04/17 00:29:40;;;;;;;;;3.33;2.00;;;;;;;;5503148;25;43865;-80
2024/04/17 00:32:06;;;;;;;;;2.00;2.00;;;;;;;;5504081;25;44088;-80
2024/04/17 00:34:31;;;;;;;;;0.00;0.00;;;;;;;;5503266;25;43955;-80
2024/04/17 00:36:56;;;;;;;;;2.00;1.00;;;;;;;;5503083;25;43885;-80
2024/04/17 00:39:22;;;;;;;;;1.00;1.00;;;;;;;;5503218;25;43881;-80
2024/04/17 00:41:47;;;;;;;;;2.67;2.67;;;;;;;;5502885;25;43838;-80
2024/04/17 00:44:12;;;;;;;;;0.00;0.00;;;;;;;;5502763;25;45025;-80
2024/04/17 00:46:38;;;;;;;;;1.00;1.00;;;;;;;;5502524;25;43916;-81
2024/04/17 00:49:03;;;;;;;;;3.00;1.00;;;;;;;;5502916;25;43964;-80
2024/04/17 00:51:28;;;;;;;;;3.00;2.00;;;;;;;;5502486;25;43869;-80
2024/04/17 00:53:54;;;;;;;;;2.00;2.00;;;;;;;;5500357;25;44123;-80
2024/04/17 00:56:19;;;;;;;;;2.00;2.00;;;;;;;;5502633;25;43841;-79
2024/04/17 00:58:44;;;;;;;;;1.00;1.00;;;;;;;;5503222;25;43714;-80
2024/04/17 01:01:09;;;;;;;;;3.33;3.00;;;;;;;;5502661;25;43805;-80
2024/04/17 01:03:34;;;;;;;;;2.00;1.67;;;;;;;;5501520;25;43940;-80
2024/04/17 01:06:00;;;;;;;;;3.67;2.67;;;;;;;;5501095;25;43816;-81
2024/04/17 01:08:25;;;;;;;;;1.00;1.00;;;;;;;;5504341;25;43888;-80
2024/04/17 01:11:00;;;;;;;;;1.00;1.00;;;;;;;;5504135;25;43948;-80
2024/04/17 01:13:25;;;;;;;;;2.00;1.67;;;;;;;;5502381;25;45767;-80
2024/04/17 01:15:50;;;;;;;;;1.00;1.00;;;;;;;;5504626;25;43943;-80
2024/04/17 01:18:17;;;;;;;;;1.67;1.67;;;;;;;;5504589;25;43794;-80
2024/04/17 01:20:42;;;;;;;;;3.00;2.33;;;;;;;;5504813;25;44287;-80
2024/04/17 01:23:07;;;;;;;;;1.33;1.33;;;;;;;;5502118;25;44783;-80
2024/04/17 01:25:33;;;;;;;;;2.67;2.67;;;;;;;;5503626;25;44013;-79
2024/04/17 01:27:58;;;;;;;;;2.00;2.00;;;;;;;;5500432;25;43885;-79
2024/04/17 01:30:23;;;;;;;;;2.33;2.33;;;;;;;;5502490;25;43761;-79
2024/04/17 01:32:48;;;;;;;;;2.67;2.00;;;;;;;;5501913;25;43917;-80
2024/04/17 01:35:13;;;;;;;;;2.33;2.33;;;;;;;;5501153;25;43883;-79
2024/04/17 01:37:38;;;;;;;;;2.00;2.00;;;;;;;;5502252;25;43822;-79
2024/04/17 01:40:04;;;;;;;;;4.00;1.67;;;;;;;;5502172;25;43855;-80
2024/04/17 01:42:29;;;;;;;;;2.00;2.00;;;;;;;;5501949;25;43842;-79
2024/04/17 01:44:54;;;;;;;;;2.00;2.00;;;;;;;;5502097;25;43886;-80
2024/04/17 01:47:19;;;;;;;;;2.00;2.00;;;;;;;;5501837;25;43740;-79
2024/04/17 01:49:45;;;;;;;;;2.67;2.67;;;;;;;;5500740;25;44098;-80
2024/04/17 01:52:10;;;;;;;;;2.33;2.33;;;;;;;;5500148;25;43932;-79
2024/04/17 01:54:35;;;;;;;;;3.00;3.00;;;;;;;;5499410;25;44235;-80
2024/04/17 01:57:00;;;;;;;;;2.00;2.00;;;;;;;;5499947;25;44022;-80
2024/04/17 01:59:25;;;;;;;;;4.00;3.00;;;;;;;;5501474;25;44036;-80
2024/04/17 02:01:50;;;;;;;;;2.00;2.00;;;;;;;;5500736;25;44032;-79
2024/04/17 02:04:16;;;;;;;;;3.00;2.00;;;;;;;;5501871;25;43799;-79
2024/04/17 02:06:41;;;;;;;;;2.00;2.00;;;;;;;;5501324;25;43792;-79
2024/04/17 02:09:06;;;;;;;;;2.00;1.33;;;;;;;;5501564;25;43845;-80
2024/04/17 02:11:31;;;;;;;;;2.00;2.00;;;;;;;;5502538;25;44742;-80
2024/04/17 02:13:56;;;;;;;;;2.33;2.33;;;;;;;;5500970;25;44015;-79
2024/04/17 02:16:22;;;;;;;;;3.00;2.00;;;;;;;;5501227;25;43986;-80
2024/04/17 02:18:47;;;;;;;;;2.00;2.00;;;;;;;;5503912;25;43872;-80
2024/04/17 02:21:12;;;;;;;;;2.00;2.00;;;;;;;;5504362;25;43862;-80
2024/04/17 02:23:38;;;;;;;;;3.00;3.00;;;;;;;;5506337;25;43856;-80
2024/04/17 02:26:03;;;;;;;;;2.00;2.00;;;;;;;;5505669;25;44058;-80
2024/04/17 02:28:28;;;;;;;;;2.00;2.00;;;;;;;;5505402;25;44216;-80
2024/04/17 02:30:53;;;;;;;;;1.67;1.67;;;;;;;;5505117;25;44997;-80
2024/04/17 02:33:18;;;;;;;;;1.67;1.67;;;;;;;;5504878;25;43739;-80
2024/04/17 02:35:44;;;;;;;;;1.00;1.00;;;;;;;;5504199;25;43714;-80
2024/04/17 02:38:09;;;;;;;;;4.00;4.00;;;;;;;;5504107;25;45805;-80
2024/04/17 02:40:34;;;;;;;;;2.00;2.00;;;;;;;;5505108;25;44105;-81
2024/04/17 02:43:00;;;;;;;;;2.33;2.00;;;;;;;;5504635;25;43770;-80
2024/04/17 02:45:25;;;;;;;;;4.00;2.00;;;;;;;;5507245;25;43753;-81
2024/04/17 02:47:50;;;;;;;;;3.00;1.67;;;;;;;;5508628;25;43955;-81
2024/04/17 02:50:15;;;;;;;;;2.67;2.67;;;;;;;;5507759;25;44107;-80
2024/04/17 02:52:40;;;;;;;;;2.67;2.67;;;;;;;;5505034;25;44090;-80
2024/04/17 02:55:06;;;;;;;;;3.67;2.33;;;;;;;;5510286;25;44069;-80
2024/04/17 02:57:31;;;;;;;;;4.00;3.00;;;;;;;;5509279;25;46013;-80
2024/04/17 02:59:56;;;;;;;;;4.00;4.00;;;;;;;;5508309;25;44022;-80
2024/04/17 03:02:21;;;;;;;;;3.33;3.33;;;;;;;;5506628;25;43708;-80
2024/04/17 03:04:47;;;;;;;;;5.00;5.00;;;;;;;;5507667;25;43742;-80
2024/04/17 03:07:12;;;;;;;;;6.67;4.00;;;;;;;;5507045;25;44042;-80
2024/04/17 03:09:37;;;;;;;;;5.00;3.00;;;;;;;;5507769;25;44049;-80
2024/04/17 03:12:02;;;;;;;;;3.67;3.67;;;;;;;;5504046;25;43748;-80
2024/04/17 03:14:27;;;;;;;;;5.00;5.00;;;;;;;;5506207;25;43984;-80
2024/04/17 03:16:53;;;;;;;;;7.00;5.00;;;;;;;;5506371;25;44309;-80
2024/04/17 03:19:18;;;;;;;;;4.33;4.00;;;;;;;;5507419;25;44354;-80
2024/04/17 03:21:43;;;;;;;;;4.00;4.00;;;;;;;;5505649;25;43868;-79
2024/04/17 03:24:08;;;;;;;;;3.00;3.00;;;;;;;;5505745;25;43919;-80
2024/04/17 03:26:33;;;;;;;;;4.67;4.67;;;;;;;;5503404;25;43932;-80
2024/04/17 03:28:58;;;;;;;;;5.33;4.00;;;;;;;;5504131;25;45138;-80
2024/04/17 03:31:24;;;;;;;;;3.67;3.67;;;;;;;;5505953;25;43817;-80
2024/04/17 03:33:49;;;;;;;;;2.33;2.33;;;;;;;;5506474;25;44043;-80
2024/04/17 03:36:14;;;;;;;;;6.00;4.33;;;;;;;;5505852;25;44116;-80
2024/04/17 03:38:39;;;;;;;;;3.33;3.33;;;;;;;;5506303;25;45129;-80
2024/04/17 03:41:04;;;;;;;;;3.67;3.33;;;;;;;;5507397;25;43908;-80
2024/04/17 03:43:30;;;;;;;;;5.00;4.00;;;;;;;;5505499;25;43881;-80
2024/04/17 03:45:55;;;;;;;;;4.00;4.00;;;;;;;;5506576;25;43904;-80
2024/04/17 03:48:20;;;;;;;;;2.67;2.67;;;;;;;;5504168;25;44066;-80
2024/04/17 03:50:45;;;;;;;;;2.33;2.33;;;;;;;;5505886;25;43888;-79
2024/04/17 03:53:10;;;;;;;;;6.00;4.67;;;;;;;;5503628;25;43912;-80
2024/04/17 03:55:35;;;;;;;;;3.33;3.00;;;;;;;;5502971;25;43821;-80
2024/04/17 03:58:01;;;;;;;;;3.00;3.00;;;;;;;;5506217;25;44626;-80
2024/04/17 04:00:26;;;;;;;;;4.00;4.00;;;;;;;;5507536;25;43755;-80
2024/04/17 04:02:51;;;;;;;;;4.33;3.67;;;;;;;;5507121;25;44078;-80
2024/04/17 04:05:16;;;;;;;;;5.00;5.00;;;;;;;;5505665;25;44015;-81
2024/04/17 04:07:41;;;;;;;;;4.00;3.00;;;;;;;;5506692;25;44016;-80
2024/04/17 04:10:07;;;;;;;;;5.67;4.67;;;;;;;;5507797;25;43888;-81
2024/04/17 04:12:32;;;;;;;;;4.00;3.00;;;;;;;;5507999;25;43835;-80
2024/04/17 04:14:57;;;;;;;;;5.33;5.33;;;;;;;;5506587;25;43837;-79
2024/04/17 04:17:22;;;;;;;;;5.00;5.00;;;;;;;;5503410;25;45840;-80
2024/04/17 04:19:47;;;;;;;;;4.67;3.33;;;;;;;;5504275;25;43920;-80
2024/04/17 04:22:13;;;;;;;;;5.67;5.00;;;;;;;;5504206;25;43906;-80
2024/04/17 04:24:39;;;;;;;;;4.00;4.00;;;;;;;;5503300;25;44191;-79
2024/04/17 04:27:05;;;;;;;;;3.00;3.00;;;;;;;;5503024;25;45315;-79
2024/04/17 04:29:30;;;;;;;;;3.00;3.00;;;;;;;;5502869;25;43661;-78
2024/04/17 04:31:55;;;;;;;;;4.67;4.67;;;;;;;;5504318;25;43926;-79
2024/04/17 04:34:20;;;;;;;;;3.33;3.33;;;;;;;;5501360;25;44734;-79
2024/04/17 04:36:45;;;;;;;;;5.33;4.00;;;;;;;;5502970;25;43892;-79
2024/04/17 04:39:10;;;;;;;;;6.00;5.00;;;;;;;;5502743;25;43911;-80
2024/04/17 04:41:36;;;;;;;;;4.33;4.33;;;;;;;;5502451;25;43801;-79
2024/04/17 04:44:01;;;;;;;;;3.67;3.67;;;;;;;;5503017;25;43827;-79
2024/04/17 04:46:26;;;;;;;;;4.00;4.00;;;;;;;;5502436;25;45274;-80
2024/04/17 04:48:51;;;;;;;;;7.00;5.00;;;;;;;;5501459;25;43746;-79
2024/04/17 04:51:16;;;;;;;;;4.67;4.00;;;;;;;;5504146;25;43784;-79
2024/04/17 04:53:42;;;;;;;;;5.00;5.00;;;;;;;;5502521;25;43968;-79
2024/04/17 04:56:07;;;;;;;;;4.33;4.00;;;;;;;;5502364;25;43952;-80
2024/04/17 04:58:33;;;;;;;;;6.67;5.67;;;;;;;;5502479;25;43833;-80
2024/04/17 05:00:58;;;;;;;;;6.67;4.67;;;;;;;;5503034;25;44008;-80
2024/04/17 05:03:23;;;;;;;;;5.00;4.00;;;;;;;;5502579;25;44005;-79
2024/04/17 05:05:48;;;;;;;;;8.33;7.00;;;;;;;;5502506;25;43864;-80
2024/04/17 05:08:14;;;;;;;;;7.00;7.00;;;;;;;;5502406;25;44102;-79
2024/04/17 05:10:39;;;;;;;;;8.00;8.00;;;;;;;;5502630;25;43797;-79
2024/04/17 05:13:04;;;;;;;;;8.67;8.67;;;;;;;;5502912;25;43937;-79
2024/04/17 05:15:29;;;;;;;;;13.67;11.00;;;;;;;;5500263;25;45654;-79
2024/04/17 05:17:55;;;;;;;;;7.33;7.33;;;;;;;;5502291;25;43756;-79
2024/04/17 05:20:20;;;;;;;;;7.67;6.67;;;;;;;;5502542;25;43937;-79
2024/04/17 05:22:46;;;;;;;;;12.67;9.33;;;;;;;;5501873;25;43987;-80
2024/04/17 05:25:11;;;;;;;;;10.67;9.33;;;;;;;;5500691;25;45811;-80
2024/04/17 05:27:36;;;;;;;;;8.33;6.67;;;;;;;;5501962;25;43899;-79
2024/04/17 05:30:01;;;;;;;;;11.00;10.00;;;;;;;;5502390;25;43906;-79
2024/04/17 05:32:27;;;;;;;;;9.67;9.67;;;;;;;;5501975;25;43909;-79
2024/04/17 05:34:52;;;;;;;;;11.00;9.67;;;;;;;;5502580;25;45187;-80
2024/04/17 05:37:17;;;;;;;;;9.67;9.00;;;;;;;;5538920;25;43891;-79
2024/04/17 05:39:42;;;;;;;;;8.33;8.33;;;;;;;;5537708;25;43896;-79
2024/04/17 05:42:08;;;;;;;;;10.67;9.67;;;;;;;;5463153;26;43924;-79
2024/04/17 05:44:33;;;;;;;;;8.00;8.00;;;;;;;;5462280;26;46000;-79
2024/04/17 05:46:58;;;;;;;;;6.67;6.67;;;;;;;;5462697;26;43953;-80
2024/04/17 05:49:23;;;;;;;;;8.33;8.33;;;;;;;;5464735;26;43835;-79
2024/04/17 05:51:49;;;;;;;;;10.33;9.00;;;;;;;;5466633;26;43843;-80
2024/04/17 05:54:14;;;;;;;;;8.67;7.33;;;;;;;;5467419;25;43807;-80
2024/04/17 05:56:39;;;;;;;;;8.67;6.00;;;;;;;;5471782;25;44105;-80
2024/04/17 05:59:04;;;;;;;;;8.33;8.33;;;;;;;;5485688;25;43857;-80
2024/04/17 06:01:30;;;;;;;;;9.67;8.67;;;;;;;;5466357;26;44695;-80
2024/04/17 06:03:55;;;;;;;;;9.33;9.33;;;;;;;;5477696;25;43974;-81
2024/04/17 06:06:20;;;;;;;;;8.00;8.00;;;;;;;;5468312;25;43730;-80
2024/04/17 06:08:47;;;;;;;;;11.33;8.67;;;;;;;;5471164;26;44088;-78
2024/04/17 06:11:12;;;;;;;;;6.00;6.00;;;;;;;;5469834;25;43845;-80
2024/04/17 06:13:37;;;;;;;;;6.00;5.00;;;;;;;;5470721;26;44170;-79
2024/04/17 06:16:03;;;;;;;;;8.33;7.33;;;;;;;;5468987;26;43985;-78
2024/04/17 06:18:28;;;;;;;;;6.67;5.00;;;;;;;;5465928;26;44270;-79
2024/04/17 06:20:53;;;;;;;;;4.00;4.00;;;;;;;;5467662;26;44044;-77
2024/04/17 06:23:18;;;;;;;;;6.33;5.33;;;;;;;;5467304;26;44079;-78
2024/04/17 06:25:48;;;;;;;;;7.00;7.00;;;;;;;;5467584;26;43873;-78
2024/04/17 06:28:13;;;;;;;;;4.00;4.00;;;;;;;;5467809;25;43855;-77
2024/04/17 06:30:39;;;;;;;;;7.00;7.00;;;;;;;;5466522;26;44092;-77
2024/04/17 06:33:04;;;;;;;;;6.33;5.67;;;;;;;;5466551;26;43987;-78
2024/04/17 06:35:29;;;;;;;;;5.00;5.00;;;;;;;;5466309;25;43939;-78
2024/04/17 06:37:54;;;;;;;;;5.67;5.00;;;;;;;;5504386;25;44001;-78
2024/04/17 06:40:19;;;;;;;;;5.00;5.00;;;;;;;;5503619;25;44224;-78
2024/04/17 06:42:45;;;;;;;;;5.00;5.00;;;;;;;;5501523;25;45228;-77
2024/04/17 06:45:10;;;;;;;;;6.00;6.00;;;;;;;;5504286;25;43825;-78
2024/04/17 06:47:35;;;;;;;;;6.00;6.00;;;;;;;;5504147;25;44050;-78
2024/04/17 06:50:00;;;;;;;;;6.00;5.00;;;;;;;;5503590;25;44156;-78
2024/04/17 06:52:25;;;;;;;;;5.00;5.00;;;;;;;;5504004;25;43818;-78
2024/04/17 06:54:50;;;;;;;;;5.00;5.00;;;;;;;;5503960;25;44044;-82
2024/04/17 06:57:16;;;;;;;;;4.00;4.00;;;;;;;;5485048;25;43882;-79
2024/04/17 06:59:41;;;;;;;;;3.67;3.33;;;;;;;;5498896;25;44189;-79
2024/04/17 07:02:06;;;;;;;;;4.67;3.67;;;;;;;;5503326;25;44971;-78
2024/04/17 07:04:32;;;;;;;;;4.00;4.00;;;;;;;;5503536;25;43792;-79
2024/04/17 07:06:57;;;;;;;;;3.67;3.67;;;;;;;;5488030;25;44118;-82
2024/04/17 07:09:22;;;;;;;;;3.67;3.00;;;;;;;;5494409;25;44239;-81
2024/04/17 07:11:47;;;;;;;;;4.67;4.00;;;;;;;;5475500;25;44314;-80
2024/04/17 07:14:12;;;;;;;;;4.00;4.00;;;;;;;;5475531;25;44079;-82
2024/04/17 07:16:38;;;;;;;;;4.00;4.00;;;;;;;;5485982;25;43997;-80
2024/04/17 07:19:03;;;;;;;;;5.00;4.00;;;;;;;;5477043;25;43908;-84
2024/04/17 07:21:31;;;;;;;;;4.00;4.00;;;;;;;;5504782;25;44527;-82
2024/04/17 07:23:59;;;;;;;;;4.00;4.00;;;;;;;;5508897;25;45896;-83
2024/04/17 07:26:24;;;;;;;;;4.67;3.00;;;;;;;;5505014;25;44134;-81
2024/04/17 07:28:50;;;;;;;;;7.00;5.33;;;;;;;;5505533;25;44311;-80
2024/04/17 07:31:15;;;;;;;;;5.67;5.67;;;;;;;;5505772;25;44049;-81
2024/04/17 07:33:40;;;;;;;;;5.33;5.33;;;;;;;;5501379;25;43764;-79
2024/04/17 07:36:05;;;;;;;;;3.00;3.00;;;;;;;;5504489;25;43805;-79
2024/04/17 07:38:32;;;;;;;;;3.00;3.00;;;;;;;;5503199;25;44504;-78
2024/04/17 07:40:57;;;;;;;;;4.00;4.00;;;;;;;;5503674;25;44071;-79
2024/04/17 07:43:23;;;;;;;;;6.00;4.67;;;;;;;;5503427;25;43824;-80
2024/04/17 07:45:51;;;;;;;;;5.00;5.00;;;;;;;;5503012;25;43804;-79
2024/04/17 07:48:16;;;;;;;;;3.67;3.67;;;;;;;;5504594;25;44020;-80
2024/04/17 07:50:42;;;;;;;;;4.00;4.00;;;;;;;;5499105;25;44808;-79
2024/04/17 07:53:07;;;;;;;;;6.00;6.00;;;;;;;;5505099;25;43849;-79
2024/04/17 07:55:32;;;;;;;;;5.33;4.00;;;;;;;;5504344;25;44089;-80
2024/04/17 07:57:57;;;;;;;;;4.67;4.67;;;;;;;;5503825;25;43931;-78
2024/04/17 08:00:22;;;;;;;;;4.00;4.00;;;;;;;;5504062;25;44103;-78
2024/04/17 08:02:50;;;;;;;;;3.00;3.00;;;;;;;;5504362;25;44110;-78
2024/04/17 08:12:01;;;;;;;;;4.00;4.00;;;;;;;;5501991;25;43985;-80
2024/04/17 08:14:26;;;;;;;;;5.00;3.67;;;;;;;;5502161;25;43943;-81
2024/04/17 08:16:51;;;;;;;;;6.00;5.00;;;;;;;;5472773;25;43330;-80
2024/04/17 08:19:16;;;;;;;;;5.67;3.67;;;;;;;;5506099;25;43913;-79
2024/04/17 08:21:42;;;;;;;;;7.00;6.33;;;;;;;;5506752;25;44710;-78
2024/04/17 08:24:07;;;;;;;;;5.00;5.00;;;;;;;;5507253;25;43824;-78
2024/04/17 08:26:32;;;;;;;;;3.00;3.00;;;;;;;;5506787;25;43920;-78
2024/04/17 08:28:57;;;;;;;;;4.67;4.00;;;;;;;;5502509;25;44028;-78
2024/04/17 08:31:23;;;;;;;;;5.33;4.00;;;;;;;;5502745;25;43873;-78
2024/04/17 08:33:48;;;;;;;;;5.00;3.00;;;;;;;;5500553;25;44317;-78
2024/04/17 08:36:13;;;;;;;;;7.00;5.67;;;;;;;;5502762;25;44228;-78
2024/04/17 08:38:39;;;;;;;;;2.33;2.33;;;;;;;;5500545;25;43992;-78
2024/04/17 08:44:14;;;;;;;;;3.33;3.00;;;;;;;;5503345;25;43927;-78
2024/04/17 08:46:39;;;;;;;;;4.00;4.00;;;;;;;;5500829;25;45978;-78
2024/04/17 08:49:05;;;;;;;;;5.33;4.33;;;;;;;;5493401;25;43869;-80
2024/04/17 08:51:30;;;;;;;;;2.67;2.67;;;;;;;;5468658;25;44170;-78
2024/04/17 08:53:57;;;;;;;;;2.00;2.00;;;;;;;;5486602;25;43876;-78
2024/04/17 08:56:25;;;;;;;;;3.67;3.67;;;;;;;;5498172;25;43789;-79
2024/04/17 08:58:50;;;;;;;;;2.33;2.33;;;;;;;;5481236;25;44062;-79
2024/04/17 09:01:18;;;;;;;;;3.67;3.67;;;;;;;;5463490;25;44933;-78
2024/04/17 09:03:43;;;;;;;;;3.00;3.00;;;;;;;;5465232;26;43634;-78
2024/04/17 09:06:09;;;;;;;;;5.00;3.00;;;;;;;;5465574;25;43812;-78
2024/04/17 09:08:36;;;;;;;;;3.00;3.00;;;;;;;;5466034;25;43807;-79
2024/04/17 09:11:02;;;;;;;;;7.00;7.00;;;;;;;;5466311;25;43845;-79
2024/04/17 09:13:27;;;;;;;;;1.33;1.33;;;;;;;;5466040;25;43756;-78
2024/04/17 09:15:52;;;;;;;;;3.00;3.00;;;;;;;;5467025;25;43957;-79
2024/04/17 09:18:23;;;;;;;;;1.00;1.00;;;;;;;;5468837;26;43825;-78
2024/04/17 09:20:48;;;;;;;;;3.00;3.00;;;;;;;;5468790;25;44001;-79
2024/04/17 09:23:14;;;;;;;;;2.00;2.00;;;;;;;;5467725;26;43798;-79
2024/04/17 09:25:39;;;;;;;;;4.00;3.00;;;;;;;;5463724;26;44073;-78
2024/04/17 09:28:04;;;;;;;;;2.33;1.33;;;;;;;;5471203;25;43241;-79
2024/04/17 09:30:30;;;;;;;;;3.00;1.67;;;;;;;;5476591;25;44142;-80
2024/04/17 09:32:55;;;;;;;;;0.67;0.67;;;;;;;;5507016;25;44013;-79
2024/04/17 09:35:21;;;;;;;;;3.00;2.00;;;;;;;;5505316;25;43973;-78
2024/04/17 09:37:46;;;;;;;;;3.00;2.00;;;;;;;;5506927;25;43831;-80
2024/04/17 09:40:12;;;;;;;;;2.67;1.00;;;;;;;;5506237;25;45687;-78
2024/04/17 09:42:41;;;;;;;;;3.33;2.00;;;;;;;;5509879;25;43905;-79
2024/04/17 09:45:09;;;;;;;;;3.00;2.00;;;;;;;;5508280;25;43716;-79
2024/04/17 09:47:34;;;;;;;;;0.67;0.67;;;;;;;;5511160;25;45950;-79
2024/04/17 09:50:02;;;;;;;;;1.00;1.00;;;;;;;;5508336;25;44150;-81
2024/04/17 09:52:28;;;;;;;;;2.00;2.00;;;;;;;;5505598;25;44116;-79
2024/04/17 09:54:54;;;;;;;;;2.00;2.00;;;;;;;;5510789;25;44037;-79
2024/04/17 09:57:19;;;;;;;;;2.33;2.00;;;;;;;;5509189;25;44773;-79
2024/04/17 09:59:45;;;;;;;;;1.00;1.00;;;;;;;;5508977;25;45904;-80
2024/04/17 10:02:13;;;;;;;;;2.67;2.33;;;;;;;;5504119;25;43912;-79
2024/04/17 10:04:38;;;;;;;;;2.00;2.00;;;;;;;;5503707;25;43809;-79
2024/04/17 10:07:04;;;;;;;;;1.00;1.00;;;;;;;;5504041;25;44146;-81
2024/04/17 10:09:30;;;;;;;;;2.00;2.00;;;;;;;;5508151;25;44073;-79
2024/04/17 10:11:56;;;;;;;;;2.00;2.00;;;;;;;;5523999;25;43971;-79
2024/04/17 10:14:22;;;;;;;;;1.00;1.00;;;;;;;;5505452;25;43997;-79
2024/04/17 10:16:48;;;;;;;;;2.00;2.00;;;;;;;;5505458;25;43962;-79
2024/04/17 10:19:13;;;;;;;;;1.33;1.33;;;;;;;;5505186;25;44145;-78
2024/04/17 10:21:38;;;;;;;;;0.67;0.33;;;;;;;;5504554;25;43936;-79
2024/04/17 10:24:07;;;;;;;;;2.00;2.00;;;;;;;;5504801;25;43965;-79
2024/04/17 10:26:45;;;;;;;;;0.67;0.33;;;;;;;;5505397;25;44002;-79
2024/04/17 10:29:29;;;;;;;;;0.33;0.33;;;;;;;;5503555;25;44198;-78
2024/04/17 10:31:57;;;;;;;;;0.00;0.00;;;;;;;;5504629;25;43868;-80
2024/04/17 10:34:23;;;;;;;;;1.33;0.00;;;;;;;;5505688;25;43793;-79
2024/04/17 10:36:52;;;;;;;;;0.00;0.00;;;;;;;;5504502;25;43883;-81
2024/04/17 10:39:17;;;;;;;;;0.00;0.00;;;;;;;;5502505;25;47124;-79
2024/04/17 10:41:42;;;;;;;;;1.67;0.00;;;;;;;;5506420;25;43821;-79
2024/04/17 10:44:09;;;;;;;;;0.00;0.00;;;;;;;;5505785;25;43757;-80
2024/04/17 10:46:34;;;;;;;;;0.00;0.00;;;;;;;;5504957;25;43867;-80
2024/04/17 10:48:59;;;;;;;;;0.00;0.00;;;;;;;;5502029;25;44831;-81
2024/04/17 10:51:25;;;;;;;;;0.00;0.00;;;;;;;;5493852;25;44189;-84
2024/04/17 10:53:53;;;;;;;;;0.00;0.00;;;;;;;;5505143;25;43896;-82
2024/04/17 10:56:19;;;;;;;;;0.00;0.00;;;;;;;;5505458;25;43714;-81
2024/04/17 10:58:44;;;;;;;;;0.33;0.33;;;;;;;;5500556;25;45229;-81
2024/04/17 11:01:12;;;;;;;;;3.00;0.00;;;;;;;;5489336;25;43852;-82
2024/04/17 11:03:38;;;;;;;;;1.00;0.00;;;;;;;;5504750;25;43771;-79
2024/04/17 11:06:03;;;;;;;;;0.00;0.00;;;;;;;;5488257;25;43984;-82
2024/04/17 11:08:29;;;;;;;;;0.00;0.00;;;;;;;;5471717;26;44183;-80
2024/04/17 11:10:54;;;;;;;;;1.00;0.00;;;;;;;;5469267;26;43888;-81
2024/04/17 11:13:19;;;;;;;;;1.00;1.00;;;;;;;;5471561;26;44042;-82
2024/04/17 11:15:44;;;;;;;;;0.00;0.00;;;;;;;;5465341;26;44067;-83
2024/04/17 11:18:10;;;;;;;;;2.33;1.33;;;;;;;;5468453;26;46569;-83
2024/04/17 11:20:36;;;;;;;;;0.67;0.67;;;;;;;;5467524;26;43852;-79
2024/04/17 11:23:08;;;;;;;;;0.33;0.33;;;;;;;;5467250;25;43859;-79
2024/04/17 11:47:16;;;;;;;;;1.33;1.33;;;;;;;;5429623;26;44084;-81
2024/04/17 11:49:42;;;;;;;;;0.33;0.33;;;;;;;;5440833;26;43901;-81
2024/04/17 11:52:08;;;;;;;;;1.67;1.67;;;;;;;;5448087;25;46901;-80
2024/04/17 11:54:34;;;;;;;;;2.67;2.67;;;;;;;;5502864;25;43881;-79
2024/04/17 11:56:59;;;;;;;;;2.00;2.00;;;;;;;;5504165;25;43885;-79
2024/04/17 11:59:24;;;;;;;;;3.00;3.00;;;;;;;;5503654;25;43837;-78
2024/04/17 12:01:49;;;;;;;;;0.33;0.33;;;;;;;;5502970;25;44808;-78
2024/04/17 12:04:15;;;;;;;;;1.67;1.67;;;;;;;;5503219;25;43946;-79
2024/04/17 12:06:40;;;;;;;;;1.33;1.33;;;;;;;;5503012;25;43887;-80
2024/04/17 12:09:05;;;;;;;;;1.67;1.67;;;;;;;;5505968;25;44054;-80
2024/04/17 12:11:30;;;;;;;;;1.00;1.00;;;;;;;;5509322;25;43863;-80
2024/04/17 12:13:55;;;;;;;;;2.00;2.00;;;;;;;;5510169;25;44454;-81
2024/04/17 12:16:20;;;;;;;;;3.00;3.00;;;;;;;;5510040;25;43804;-81
2024/04/17 12:18:46;;;;;;;;;1.00;1.00;;;;;;;;5510991;25;44005;-82
2024/04/17 12:33:48;;;;;;;;;3.00;2.00;;;;;;;;5374863;26;44597;-83
2024/04/17 12:36:13;;;;;;;;;3.00;2.00;;;;;;;;5470234;26;43823;-81
2024/04/17 12:38:38;;;;;;;;;2.67;2.67;;;;;;;;5475370;25;43936;-80
2024/04/17 12:41:05;;;;;;;;;4.00;3.00;;;;;;;;5496423;25;44265;-81
2024/04/17 12:43:31;;;;;;;;;1.33;1.33;;;;;;;;5493520;25;45826;-80
2024/04/17 12:45:56;;;;;;;;;3.00;3.00;;;;;;;;5490421;25;43813;-82
2024/04/17 12:48:21;;;;;;;;;2.00;2.00;;;;;;;;5484002;25;43867;-80
2024/04/17 12:50:47;;;;;;;;;1.33;1.33;;;;;;;;5491013;25;43540;-81
2024/04/17 12:53:12;;;;;;;;;2.00;2.00;;;;;;;;5486577;25;44325;-82
2024/04/17 12:55:37;;;;;;;;;0.33;0.33;;;;;;;;5498119;25;43943;-83
2024/04/17 12:58:03;;;;;;;;;1.00;1.00;;;;;;;;5505588;25;43999;-82
2024/04/17 13:00:28;;;;;;;;;0.00;0.00;;;;;;;;5503146;25;45497;-79
2024/04/17 13:02:53;;;;;;;;;0.33;0.33;;;;;;;;5496886;25;44987;-79
2024/04/17 13:05:19;;;;;;;;;1.00;1.00;;;;;;;;5483154;25;44760;-80
2024/04/17 13:07:44;;;;;;;;;0.33;0.33;;;;;;;;5474459;25;43846;-79
2024/04/17 13:10:09;;;;;;;;;2.00;2.00;;;;;;;;5470828;25;43788;-78
2024/04/17 13:12:35;;;;;;;;;0.00;0.00;;;;;;;;5495451;25;44756;-80
2024/04/17 13:15:00;;;;;;;;;1.33;1.33;;;;;;;;5493126;25;43996;-82
2024/04/17 13:17:25;;;;;;;;;2.00;2.00;;;;;;;;5493063;25;44459;-80
2024/04/17 13:19:50;;;;;;;;;2.00;1.33;;;;;;;;5503740;25;43914;-76
2024/04/17 13:22:16;;;;;;;;;1.33;1.33;;;;;;;;5501563;25;43945;-78
2024/04/17 13:24:41;;;;;;;;;0.67;0.67;;;;;;;;5502091;25;43607;-78
2024/04/17 13:27:08;;;;;;;;;3.33;1.00;;;;;;;;5485706;25;44070;-78
2024/04/17 13:29:33;;;;;;;;;1.00;1.00;;;;;;;;5483226;25;44341;-79
2024/04/17 13:31:59;;;;;;;;;2.67;1.00;;;;;;;;5468836;25;43809;-79
2024/04/17 13:34:24;;;;;;;;;2.00;1.00;;;;;;;;5467846;25;43952;-79
2024/04/17 13:36:49;;;;;;;;;2.00;2.00;;;;;;;;5495862;25;43877;-78
2024/04/17 13:39:14;;;;;;;;;2.00;2.00;;;;;;;;5501448;25;43741;-77
2024/04/17 13:41:40;;;;;;;;;0.00;0.00;;;;;;;;5502423;25;44853;-78
2024/04/17 13:44:05;;;;;;;;;3.67;3.00;;;;;;;;5503289;25;43926;-79
2024/04/17 13:46:30;;;;;;;;;3.00;3.00;;;;;;;;5502904;25;43967;-78
2024/04/17 13:48:55;;;;;;;;;1.33;1.33;;;;;;;;5503161;25;44134;-79
2024/04/17 13:51:20;;;;;;;;;2.00;2.00;;;;;;;;5502041;25;43840;-78
2024/04/17 13:53:52;;;;;;;;;1.67;1.00;;;;;;;;5491943;25;44098;-80
2024/04/17 13:56:17;;;;;;;;;2.33;2.33;;;;;;;;5505909;25;43826;-78
2024/04/17 13:58:42;;;;;;;;;1.00;1.00;;;;;;;;5505788;25;43992;-78
2024/04/17 14:01:08;;;;;;;;;4.00;2.00;;;;;;;;5500747;25;46769;-78
2024/04/17 14:03:33;;;;;;;;;1.00;1.00;;;;;;;;5502440;25;44095;-81
2024/04/17 14:05:59;;;;;;;;;3.33;3.00;;;;;;;;5504199;25;43893;-79
2024/04/17 14:08:24;;;;;;;;;2.67;2.00;;;;;;;;5502479;25;44100;-79
2024/04/17 14:10:49;;;;;;;;;2.00;2.00;;;;;;;;5502124;25;43979;-78
2024/04/17 14:13:15;;;;;;;;;1.00;1.00;;;;;;;;5503139;25;43911;-79
2024/04/17 14:15:40;;;;;;;;;1.00;1.00;;;;;;;;5505033;25;43948;-77
2024/04/17 14:18:06;;;;;;;;;2.00;2.00;;;;;;;;5506589;25;43741;-78
2024/04/17 14:20:37;;;;;;;;;1.00;1.00;;;;;;;;5507302;25;44454;-83
2024/04/17 14:23:03;;;;;;;;;3.00;3.00;;;;;;;;5506130;25;43813;-84
2024/04/17 14:25:28;;;;;;;;;1.33;1.33;;;;;;;;5500682;25;43816;-81
2024/04/17 14:27:53;;;;;;;;;2.00;2.00;;;;;;;;5507368;25;43830;-81
2024/04/17 14:30:19;;;;;;;;;2.00;2.00;;;;;;;;5511878;25;44008;-80
2024/04/17 14:32:44;;;;;;;;;1.33;1.33;;;;;;;;5500675;25;44071;-82
2024/04/17 14:35:09;;;;;;;;;1.67;1.67;;;;;;;;5502287;25;43761;-80
2024/04/17 14:37:35;;;;;;;;;1.67;1.67;;;;;;;;5505209;25;43984;-81
2024/04/17 14:40:01;;;;;;;;;1.67;1.67;;;;;;;;5507006;25;44060;-83
2024/04/17 14:42:26;;;;;;;;;2.67;2.67;;;;;;;;5505764;25;44463;-82
2024/04/17 14:44:52;;;;;;;;;3.00;3.00;;;;;;;;5511104;25;44303;-81
2024/04/17 14:47:17;;;;;;;;;2.00;2.00;;;;;;;;5508830;25;43799;-79
2024/04/17 14:49:45;;;;;;;;;3.00;2.00;;;;;;;;5502628;25;44785;-78
2024/04/17 14:52:10;;;;;;;;;1.00;1.00;;;;;;;;5503613;25;43852;-79
2024/04/17 14:54:36;;;;;;;;;3.00;3.00;;;;;;;;5503641;25;44005;-78
2024/04/17 14:57:01;;;;;;;;;1.67;1.67;;;;;;;;5503735;25;44350;-79
2024/04/17 14:59:28;;;;;;;;;2.00;2.00;;;;;;;;5492989;25;43970;-81
2024/04/17 15:01:54;;;;;;;;;2.00;2.00;;;;;;;;5504011;25;43828;-80
2024/04/17 15:04:19;;;;;;;;;1.67;1.67;;;;;;;;5503135;25;44023;-79
2024/04/17 15:06:44;;;;;;;;;1.33;1.33;;;;;;;;5501315;25;44212;-78
2024/04/17 15:09:09;;;;;;;;;2.67;2.67;;;;;;;;5504862;25;44020;-79
2024/04/17 15:11:37;;;;;;;;;1.00;1.00;;;;;;;;5504227;25;43961;-78
2024/04/17 15:14:02;;;;;;;;;2.33;2.33;;;;;;;;5505789;25;43959;-79
2024/04/17 15:16:27;;;;;;;;;4.00;2.00;;;;;;;;5503048;25;43859;-79